createdAt,value
2016-05-09T00:00:42.653Z,0
2016-05-09T00:01:42.890Z,0
2016-05-09T00:02:41.566Z,0
2016-05-09T00:03:43.084Z,0
2016-05-09T00:04:42.368Z,0
2016-05-09T00:05:41.807Z,0
2016-05-09T00:06:42.389Z,0
2016-05-09T00:07:42.470Z,0
2016-05-09T00:08:42.676Z,0
2016-05-09T00:09:42.553Z,0
2016-05-09T00:10:41.946Z,0
2016-05-09T00:11:41.839Z,0
2016-05-09T00:12:42.936Z,0
2016-05-09T00:13:41.939Z,0
2016-05-09T00:14:42.317Z,0
2016-05-09T00:15:42.131Z,0
2016-05-09T00:16:55.337Z,0
2016-05-09T00:17:41.605Z,0
2016-05-09T00:18:42.467Z,0
2016-05-09T00:19:42.283Z,0
2016-05-09T00:20:41.536Z,0
2016-05-09T00:21:42.023Z,0
2016-05-09T00:22:42.307Z,0
2016-05-09T00:23:41.606Z,0
2016-05-09T00:24:42.155Z,0
2016-05-09T00:25:41.174Z,0
2016-05-09T00:26:42.223Z,0
2016-05-09T00:27:41.821Z,0
2016-05-09T00:28:43.073Z,0
2016-05-09T00:29:41.029Z,0
2016-05-09T00:30:42.110Z,0
2016-05-09T00:31:41.440Z,0
2016-05-09T00:32:41.943Z,0
2016-05-09T00:33:43.071Z,0
2016-05-09T00:34:42.417Z,0
2016-05-09T00:35:41.420Z,0
2016-05-09T00:36:41.563Z,0
2016-05-09T00:37:41.268Z,0
2016-05-09T00:38:41.053Z,0
2016-05-09T00:39:41.978Z,0
2016-05-09T00:40:40.918Z,0
2016-05-09T00:41:40.951Z,0
2016-05-09T00:42:42.017Z,0
2016-05-09T00:43:42.160Z,0
2016-05-09T00:44:41.538Z,0
2016-05-09T00:45:42.180Z,0
2016-05-09T00:46:41.481Z,0
2016-05-09T00:47:41.077Z,0
2016-05-09T00:48:41.173Z,0
2016-05-09T00:49:42.707Z,0
2016-05-09T00:50:41.133Z,0
2016-05-09T00:51:40.869Z,0
2016-05-09T00:52:40.934Z,0
2016-05-09T00:53:40.655Z,0
2016-05-09T00:54:40.908Z,0
2016-05-09T00:55:41.083Z,0
2016-05-09T00:56:41.023Z,0
2016-05-09T00:57:40.979Z,0
2016-05-09T00:58:41.529Z,0
2016-05-09T00:59:41.641Z,0
2016-05-09T01:00:41.455Z,0
2016-05-09T01:01:41.490Z,0
2016-05-09T01:02:40.633Z,0
2016-05-09T01:03:41.276Z,0
2016-05-09T01:04:41.701Z,0
2016-05-09T01:05:40.751Z,0
2016-05-09T01:06:41.206Z,0
2016-05-09T01:07:40.943Z,0
2016-05-09T01:08:40.930Z,0
2016-05-09T01:09:40.465Z,0
2016-05-09T01:10:41.265Z,0
2016-05-09T01:11:41.235Z,0
2016-05-09T01:12:41.456Z,0
2016-05-09T01:13:41.194Z,0
2016-05-09T01:14:40.414Z,0
2016-05-09T01:15:40.903Z,0
2016-05-09T01:16:40.312Z,0
2016-05-09T01:17:54.783Z,0
2016-05-09T01:18:40.614Z,0
2016-05-09T01:19:40.272Z,0
2016-05-09T01:20:40.697Z,0
2016-05-09T01:21:40.511Z,0
2016-05-09T01:22:40.640Z,0
2016-05-09T01:23:41.283Z,0
2016-05-09T01:24:40.224Z,0
2016-05-09T01:25:40.085Z,0
2016-05-09T01:26:40.260Z,0
2016-05-09T01:27:40.497Z,0
2016-05-09T01:28:40.422Z,0
2016-05-09T01:29:40.299Z,0
2016-05-09T01:30:40.068Z,0
2016-05-09T01:31:40.867Z,0
2016-05-09T01:32:40.151Z,0
2016-05-09T01:33:39.857Z,0
2016-05-09T01:34:40.032Z,0
2016-05-09T01:35:42.393Z,0
2016-05-09T01:36:41.146Z,0
2016-05-09T01:37:39.773Z,0
2016-05-09T01:38:40.465Z,0
2016-05-09T01:39:39.952Z,0
2016-05-09T01:40:41.642Z,0
2016-05-09T01:41:40.395Z,0
2016-05-09T01:42:39.928Z,0
2016-05-09T01:43:39.680Z,0
2016-05-09T01:44:40.043Z,0
2016-05-09T01:45:40.186Z,0
2016-05-09T01:46:40.642Z,0
2016-05-09T01:47:39.926Z,0
2016-05-09T01:48:39.584Z,0
2016-05-09T01:49:40.697Z,0
2016-05-09T01:50:40.121Z,0
2016-05-09T01:51:39.828Z,0
2016-05-09T01:52:39.908Z,0
2016-05-09T01:53:39.692Z,0
2016-05-09T01:54:39.507Z,0
2016-05-09T01:55:39.447Z,0
2016-05-09T01:56:40.278Z,0
2016-05-09T01:57:40.672Z,0
2016-05-09T01:58:41.705Z,0
2016-05-09T01:59:39.911Z,0
2016-05-09T02:00:39.257Z,0
2016-05-09T02:01:39.276Z,0
2016-05-09T02:02:39.513Z,0
2016-05-09T02:03:39.188Z,0
2016-05-09T02:04:39.363Z,0
2016-05-09T02:05:39.834Z,0
2016-05-09T02:06:39.070Z,0
2016-05-09T02:07:39.448Z,0
2016-05-09T02:08:39.874Z,0
2016-05-09T02:09:39.798Z,0
2016-05-09T02:10:41.254Z,0
2016-05-09T02:11:39.193Z,0
2016-05-09T02:12:39.806Z,0
2016-05-09T02:13:38.995Z,0
2016-05-09T02:14:38.952Z,0
2016-05-09T02:15:39.329Z,0
2016-05-09T02:16:40.160Z,0
2016-05-09T02:17:41.553Z,0
2016-05-09T02:18:39.900Z,0
2016-05-09T02:19:39.574Z,0
2016-05-09T02:20:39.155Z,0
2016-05-09T02:21:39.408Z,0
2016-05-09T02:22:39.442Z,0
2016-05-09T02:23:38.935Z,0
2016-05-09T02:24:39.204Z,0
2016-05-09T02:25:39.878Z,0
2016-05-09T02:26:39.429Z,0
2016-05-09T02:27:39.119Z,0
2016-05-09T02:28:42.105Z,0
2016-05-09T02:29:39.873Z,0
2016-05-09T02:30:38.814Z,0
2016-05-09T02:31:38.473Z,0
2016-05-09T02:32:38.820Z,0
2016-05-09T02:33:38.932Z,0
2016-05-09T02:34:39.809Z,0
2016-05-09T02:35:39.203Z,0
2016-05-09T02:36:38.642Z,0
2016-05-09T02:37:38.989Z,0
2016-05-09T02:38:38.742Z,0
2016-05-09T02:39:38.792Z,0
2016-05-09T02:40:39.559Z,0
2016-05-09T02:41:38.640Z,0
2016-05-09T02:42:38.565Z,0
2016-05-09T02:43:38.880Z,0
2016-05-09T02:44:38.461Z,0
2016-05-09T02:45:38.917Z,0
2016-05-09T02:46:38.435Z,0
2016-05-09T02:47:39.547Z,0
2016-05-09T02:48:38.675Z,0
2016-05-09T02:49:38.459Z,0
2016-05-09T02:50:38.446Z,0
2016-05-09T02:51:39.339Z,0
2016-05-09T02:52:39.013Z,0
2016-05-09T02:53:38.907Z,0
2016-05-09T02:54:39.112Z,0
2016-05-09T02:55:39.007Z,0
2016-05-09T02:56:38.118Z,0
2016-05-09T02:57:39.402Z,0
2016-05-09T02:58:38.185Z,0
2016-05-09T02:59:38.486Z,0
2016-05-09T03:00:38.176Z,0
2016-05-09T03:01:38.632Z,0
2016-05-09T03:02:38.290Z,0
2016-05-09T03:03:39.434Z,0
2016-05-09T03:04:39.217Z,0
2016-05-09T03:05:39.611Z,0
2016-05-09T03:06:38.598Z,0
2016-05-09T03:07:38.164Z,0
2016-05-09T03:08:38.228Z,0
2016-05-09T03:09:39.654Z,0
2016-05-09T03:10:37.687Z,0
2016-05-09T03:11:38.345Z,0
2016-05-09T03:12:38.723Z,0
2016-05-09T03:13:38.305Z,0
2016-05-09T03:14:38.933Z,0
2016-05-09T03:15:39.856Z,0
2016-05-09T03:16:38.391Z,0
2016-05-09T03:17:38.706Z,0
2016-05-09T03:18:38.568Z,0
2016-05-09T03:19:38.727Z,0
2016-05-09T03:20:40.120Z,0
2016-05-09T03:21:38.873Z,0
2016-05-09T03:22:38.188Z,0
2016-05-09T03:23:37.988Z,0
2016-05-09T03:24:38.068Z,0
2016-05-09T03:25:38.712Z,0
2016-05-09T03:26:37.793Z,0
2016-05-09T03:27:37.936Z,0
2016-05-09T03:28:37.689Z,0
2016-05-09T03:29:37.801Z,0
2016-05-09T03:30:37.460Z,0
2016-05-09T03:31:37.665Z,0
2016-05-09T03:32:37.356Z,0
2016-05-09T03:33:37.733Z,0
2016-05-09T03:34:37.705Z,0
2016-05-09T03:35:37.864Z,0
2016-05-09T03:36:37.351Z,0
2016-05-09T03:37:37.900Z,0
2016-05-09T03:38:37.435Z,0
2016-05-09T03:39:37.687Z,0
2016-05-09T03:40:37.565Z,0
2016-05-09T03:41:37.661Z,0
2016-05-09T03:42:37.351Z,0
2016-05-09T03:43:37.416Z,0
2016-05-09T03:44:37.014Z,0
2016-05-09T03:45:37.469Z,0
2016-05-09T03:46:37.284Z,0
2016-05-09T03:47:37.583Z,0
2016-05-09T03:48:37.414Z,0
2016-05-09T03:49:43.714Z,0
2016-05-09T03:50:44.654Z,0
2016-05-09T03:51:41.000Z,0
2016-05-09T03:52:37.097Z,0
2016-05-09T03:53:37.208Z,0
2016-05-09T03:54:37.102Z,0
2016-05-09T03:55:37.136Z,0
2016-05-09T03:56:37.108Z,0
2016-05-09T03:57:37.360Z,0
2016-05-09T03:58:36.754Z,0
2016-05-09T03:59:37.084Z,0
2016-05-09T04:00:37.025Z,0
2016-05-09T04:01:36.965Z,0
2016-05-09T04:02:36.968Z,0
2016-05-09T04:03:37.204Z,0
2016-05-09T04:04:36.879Z,0
2016-05-09T04:05:36.725Z,0
2016-05-09T04:06:36.791Z,0
2016-05-09T04:07:36.856Z,0
2016-05-09T04:08:36.328Z,0
2016-05-09T04:09:36.986Z,0
2016-05-09T04:10:36.661Z,0
2016-05-09T04:11:37.116Z,0
2016-05-09T04:12:36.901Z,0
2016-05-09T04:13:36.545Z,0
2016-05-09T04:14:36.750Z,0
2016-05-09T04:15:36.877Z,0
2016-05-09T04:16:36.614Z,0
2016-05-09T04:17:37.023Z,0
2016-05-09T04:18:36.589Z,0
2016-05-09T04:19:36.467Z,0
2016-05-09T04:20:36.610Z,0
2016-05-09T04:21:36.533Z,0
2016-05-09T04:22:36.536Z,0
2016-05-09T04:23:36.414Z,0
2016-05-09T04:24:36.496Z,0
2016-05-09T04:25:36.311Z,5
2016-05-09T04:26:36.438Z,5
2016-05-09T04:27:36.785Z,5
2016-05-09T04:28:36.382Z,5
2016-05-09T04:29:36.415Z,5
2016-05-09T04:30:36.558Z,5
2016-05-09T04:31:36.311Z,5
2016-05-09T04:32:36.173Z,5
2016-05-09T04:33:36.598Z,5
2016-05-09T04:34:36.319Z,5
2016-05-09T04:35:36.400Z,5
2016-05-09T04:36:36.340Z,5
2016-05-09T04:37:36.218Z,5
2016-05-09T04:38:35.830Z,5
2016-05-09T04:39:36.348Z,5
2016-05-09T04:40:35.945Z,5
2016-05-09T04:41:35.900Z,5
2016-05-09T04:42:36.184Z,5
2016-05-09T04:43:36.125Z,5
2016-05-09T04:44:36.096Z,5
2016-05-09T04:45:36.349Z,5
2016-05-09T04:46:36.117Z,5
2016-05-09T04:47:36.057Z,5
2016-05-09T04:48:36.388Z,5
2016-05-09T04:49:35.845Z,5
2016-05-09T04:50:35.752Z,5
2016-05-09T04:51:36.022Z,5
2016-05-09T04:52:35.930Z,10
2016-05-09T04:53:35.902Z,10
2016-05-09T04:54:35.951Z,10
2016-05-09T04:55:35.861Z,10
2016-05-09T04:56:35.675Z,10
2016-05-09T04:57:36.256Z,10
2016-05-09T04:58:35.774Z,10
2016-05-09T04:59:36.402Z,10
2016-05-09T05:00:35.826Z,10
2016-05-09T05:01:35.783Z,10
2016-05-09T05:02:35.707Z,10
2016-05-09T05:03:35.757Z,10
2016-05-09T05:04:35.759Z,10
2016-05-09T05:05:35.590Z,10
2016-05-09T05:06:35.968Z,10
2016-05-09T05:07:35.377Z,10
2016-05-09T05:08:35.426Z,10
2016-05-09T05:09:35.632Z,10
2016-05-09T05:10:35.620Z,10
2016-05-09T05:11:35.387Z,10
2016-05-09T05:12:38.765Z,10
2016-05-09T05:13:35.096Z,10
2016-05-09T05:14:35.473Z,10
2016-05-09T05:15:35.383Z,10
2016-05-09T05:16:35.369Z,10
2016-05-09T05:17:35.545Z,10
2016-05-09T05:18:35.750Z,10
2016-05-09T05:19:35.331Z,10
2016-05-09T05:20:35.271Z,10
2016-05-09T05:21:35.195Z,10
2016-05-09T05:22:35.322Z,10
2016-05-09T05:23:35.092Z,10
2016-05-09T05:24:35.486Z,10
2016-05-09T05:25:35.238Z,10
2016-05-09T05:26:35.037Z,10
2016-05-09T05:27:35.243Z,10
2016-05-09T05:28:35.136Z,10
2016-05-09T05:29:35.233Z,10
2016-05-09T05:30:35.033Z,10
2016-05-09T05:31:35.129Z,10
2016-05-09T05:32:34.724Z,10
2016-05-09T05:33:35.165Z,10
2016-05-09T05:34:34.699Z,10
2016-05-09T05:35:34.874Z,10
2016-05-09T05:36:35.361Z,10
2016-05-09T05:37:34.910Z,10
2016-05-09T05:38:35.570Z,10
2016-05-09T05:39:35.306Z,10
2016-05-09T05:40:34.793Z,10
2016-05-09T05:41:34.953Z,10
2016-05-09T05:42:35.221Z,10
2016-05-09T05:43:34.536Z,10
2016-05-09T05:44:34.914Z,10
2016-05-09T05:45:34.917Z,10
2016-05-09T05:46:34.982Z,10
2016-05-09T05:47:34.609Z,10
2016-05-09T05:48:35.018Z,15
2016-05-09T05:49:34.755Z,15
2016-05-09T05:50:34.445Z,15
2016-05-09T05:51:34.775Z,15
2016-05-09T05:52:34.544Z,15
2016-05-09T05:53:34.689Z,15
2016-05-09T05:54:34.972Z,15
2016-05-09T05:55:34.491Z,15
2016-05-09T05:56:34.774Z,15
2016-05-09T05:57:34.730Z,15
2016-05-09T05:58:48.732Z,15
2016-05-09T05:59:34.844Z,15
2016-05-09T06:00:34.765Z,15
2016-05-09T06:01:34.390Z,15
2016-05-09T06:02:34.749Z,15
2016-05-09T06:03:34.812Z,15
2016-05-09T06:04:34.405Z,15
2016-05-09T06:05:34.611Z,15
2016-05-09T06:06:34.521Z,15
2016-05-09T06:07:34.647Z,15
2016-05-09T06:08:34.619Z,15
2016-05-09T06:09:34.451Z,15
2016-05-09T06:10:34.505Z,15
2016-05-09T06:11:34.435Z,15
2016-05-09T06:12:34.835Z,15
2016-05-09T06:13:34.724Z,15
2016-05-09T06:14:34.794Z,15
2016-05-09T06:15:34.784Z,15
2016-05-09T06:16:34.553Z,15
2016-05-09T06:17:34.590Z,15
2016-05-09T06:18:34.579Z,15
2016-05-09T06:19:34.395Z,15
2016-05-09T06:20:34.508Z,15
2016-05-09T06:21:35.152Z,15
2016-05-09T06:22:34.640Z,15
2016-05-09T06:23:34.580Z,15
2016-05-09T06:24:34.256Z,15
2016-05-09T06:25:34.415Z,15
2016-05-09T06:26:34.465Z,15
2016-05-09T06:27:34.281Z,15
2016-05-09T06:28:34.158Z,15
2016-05-09T06:29:34.411Z,15
2016-05-09T06:30:34.679Z,15
2016-05-09T06:31:34.228Z,15
2016-05-09T06:32:34.465Z,15
2016-05-09T06:33:34.186Z,15
2016-05-09T06:34:34.502Z,15
2016-05-09T06:35:34.442Z,15
2016-05-09T06:36:34.320Z,15
2016-05-09T06:37:34.307Z,15
2016-05-09T06:38:34.044Z,15
2016-05-09T06:39:34.219Z,15
2016-05-09T06:40:34.002Z,15
2016-05-09T06:41:36.099Z,15
2016-05-09T06:42:34.352Z,15
2016-05-09T06:43:34.182Z,15
2016-05-09T06:44:33.499Z,15
2016-05-09T06:45:34.048Z,15
2016-05-09T06:46:33.957Z,15
2016-05-09T06:47:34.099Z,15
2016-05-09T06:48:34.102Z,15
2016-05-09T06:49:34.527Z,15
2016-05-09T06:50:34.186Z,15
2016-05-09T06:51:34.501Z,15
2016-05-09T06:52:34.269Z,15
2016-05-09T06:53:47.631Z,15
2016-05-09T06:54:34.572Z,15
2016-05-09T06:55:34.137Z,15
2016-05-09T06:56:34.187Z,15
2016-05-09T06:57:34.611Z,15
2016-05-09T06:58:34.254Z,15
2016-05-09T06:59:35.539Z,15
2016-05-09T07:00:34.416Z,15
2016-05-09T07:01:33.919Z,15
2016-05-09T07:02:33.639Z,15
2016-05-09T07:03:34.346Z,15
2016-05-09T07:04:34.224Z,15
2016-05-09T07:05:35.069Z,15
2016-05-09T07:06:34.292Z,15
2016-05-09T07:07:34.575Z,15
2016-05-09T07:08:33.985Z,15
2016-05-09T07:09:34.346Z,15
2016-05-09T07:10:47.302Z,15
2016-05-09T07:11:33.836Z,15
2016-05-09T07:12:50.464Z,15
2016-05-09T07:13:34.936Z,15
2016-05-09T07:14:47.735Z,15
2016-05-09T07:15:34.363Z,15
2016-05-09T07:16:34.177Z,15
2016-05-09T07:17:35.774Z,15
2016-05-09T07:18:35.699Z,15
2016-05-09T07:19:35.795Z,15
2016-05-09T07:20:35.048Z,15
2016-05-09T07:21:34.379Z,15
2016-05-09T07:22:35.053Z,15
2016-05-09T07:23:35.134Z,15
2016-05-09T07:24:34.012Z,15
2016-05-09T07:25:47.843Z,15
2016-05-09T07:26:35.517Z,15
2016-05-09T07:27:35.176Z,15
2016-05-09T07:28:34.820Z,15
2016-05-09T07:29:33.979Z,15
2016-05-09T07:30:36.825Z,15
2016-05-09T07:31:35.999Z,15
2016-05-09T07:32:34.440Z,15
2016-05-09T07:33:34.317Z,15
2016-05-09T07:34:36.148Z,15
2016-05-09T07:35:34.308Z,15
2016-05-09T07:36:35.528Z,15
2016-05-09T07:37:35.766Z,15
2016-05-09T07:38:34.691Z,15
2016-05-09T07:39:36.614Z,15
2016-05-09T07:40:34.899Z,15
2016-05-09T07:41:34.683Z,15
2016-05-09T07:43:00.982Z,15
2016-05-09T07:43:36.250Z,15
2016-05-09T07:44:34.035Z,15
2016-05-09T07:45:34.130Z,15
2016-05-09T07:46:34.212Z,15
2016-05-09T07:47:32.918Z,15
2016-05-09T07:48:34.513Z,15
2016-05-09T07:49:34.611Z,15
2016-05-09T07:50:33.285Z,15
2016-05-09T07:51:33.027Z,15
2016-05-09T07:52:33.062Z,15
2016-05-09T07:53:33.360Z,15
2016-05-09T07:54:33.487Z,15
2016-05-09T07:55:32.891Z,15
2016-05-09T07:56:33.206Z,15
2016-05-09T07:57:34.427Z,15
2016-05-09T07:58:33.587Z,15
2016-05-09T07:59:34.293Z,15
2016-05-09T08:00:34.529Z,15
2016-05-09T08:01:33.438Z,15
2016-05-09T08:02:33.004Z,15
2016-05-09T08:03:34.349Z,15
2016-05-09T08:04:33.212Z,15
2016-05-09T08:05:43.980Z,15
2016-05-09T08:06:38.232Z,15
2016-05-09T08:07:48.642Z,15
2016-05-09T08:08:51.942Z,15
2016-05-09T08:09:35.929Z,15
2016-05-09T08:10:38.010Z,15
2016-05-09T08:11:49.184Z,15
2016-05-09T08:12:34.468Z,15
2016-05-09T08:13:34.361Z,15
2016-05-09T08:14:33.786Z,15
2016-05-09T08:15:32.961Z,15
2016-05-09T08:16:33.510Z,15
2016-05-09T08:17:33.670Z,15
2016-05-09T08:18:34.359Z,15
2016-05-09T08:19:33.330Z,15
2016-05-09T08:20:33.412Z,15
2016-05-09T08:21:32.930Z,15
2016-05-09T08:22:34.057Z,15
2016-05-09T08:23:32.842Z,15
2016-05-09T08:24:47.173Z,15
2016-05-09T08:25:32.798Z,15
2016-05-09T08:26:32.269Z,15
2016-05-09T08:27:32.928Z,15
2016-05-09T08:28:33.042Z,20
2016-05-09T08:29:33.936Z,20
2016-05-09T08:30:33.235Z,20
2016-05-09T08:31:36.550Z,20
2016-05-09T08:32:31.863Z,20
2016-05-09T08:33:31.678Z,15
2016-05-09T08:34:32.055Z,20
2016-05-09T08:35:31.793Z,20
2016-05-09T08:36:35.705Z,20
2016-05-09T08:37:32.471Z,20
2016-05-09T08:38:32.160Z,20
2016-05-09T08:39:32.256Z,20
2016-05-09T08:40:32.900Z,20
2016-05-09T08:41:33.734Z,20
2016-05-09T08:42:31.827Z,20
2016-05-09T08:43:32.002Z,20
2016-05-09T08:44:31.864Z,20
2016-05-09T08:45:33.289Z,20
2016-05-09T08:46:31.760Z,20
2016-05-09T08:47:31.825Z,20
2016-05-09T08:48:31.656Z,20
2016-05-09T08:49:32.331Z,20
2016-05-09T08:50:31.864Z,20
2016-05-09T08:51:31.898Z,20
2016-05-09T08:52:31.886Z,20
2016-05-09T08:53:31.889Z,20
2016-05-09T08:54:32.750Z,20
2016-05-09T08:55:45.631Z,20
2016-05-09T08:56:32.037Z,20
2016-05-09T08:57:32.149Z,20
2016-05-09T08:58:31.464Z,20
2016-05-09T08:59:31.920Z,20
2016-05-09T09:00:31.594Z,20
2016-05-09T09:01:33.191Z,20
2016-05-09T09:02:35.696Z,20
2016-05-09T09:03:32.024Z,20
2016-05-09T09:04:45.905Z,20
2016-05-09T09:05:32.608Z,20
2016-05-09T09:06:32.470Z,20
2016-05-09T09:07:34.051Z,20
2016-05-09T09:08:41.025Z,20
2016-05-09T09:09:33.760Z,20
2016-05-09T09:10:32.059Z,20
2016-05-09T09:11:31.389Z,20
2016-05-09T09:12:33.439Z,20
2016-05-09T09:13:33.927Z,20
2016-05-09T09:14:32.273Z,20
2016-05-09T09:15:31.276Z,20
2016-05-09T09:16:31.748Z,20
2016-05-09T09:17:31.828Z,20
2016-05-09T09:18:31.143Z,20
2016-05-09T09:19:32.287Z,20
2016-05-09T09:20:31.601Z,20
2016-05-09T09:21:32.073Z,20
2016-05-09T09:22:31.356Z,20
2016-05-09T09:23:34.484Z,20
2016-05-09T09:24:35.550Z,20
2016-05-09T09:25:31.303Z,20
2016-05-09T09:26:31.149Z,20
2016-05-09T09:27:35.730Z,20
2016-05-09T09:28:32.936Z,20
2016-05-09T09:29:31.172Z,20
2016-05-09T09:31:33.193Z,20
2016-05-09T09:32:45.480Z,20
2016-05-09T09:33:36.296Z,20
2016-05-09T09:34:45.095Z,20
2016-05-09T09:35:31.595Z,20
2016-05-09T09:36:31.207Z,20
2016-05-09T09:37:44.978Z,20
2016-05-09T09:38:31.525Z,20
2016-05-09T09:39:31.605Z,20
2016-05-09T09:40:39.705Z,20
2016-05-09T09:41:31.752Z,20
2016-05-09T09:42:30.645Z,20
2016-05-09T09:43:32.148Z,20
2016-05-09T09:44:32.775Z,20
2016-05-09T09:45:44.624Z,20
2016-05-09T09:46:33.921Z,20
2016-05-09T09:47:30.689Z,20
2016-05-09T09:48:31.162Z,20
2016-05-09T09:49:31.789Z,20
2016-05-09T09:50:31.151Z,20
2016-05-09T09:51:30.716Z,20
2016-05-09T09:52:45.800Z,20
2016-05-09T09:53:34.675Z,20
2016-05-09T09:54:45.009Z,20
2016-05-09T09:55:32.196Z,20
2016-05-09T09:56:33.901Z,20
2016-05-09T09:57:32.217Z,20
2016-05-09T09:58:31.016Z,20
2016-05-09T09:59:31.534Z,20
2016-05-09T10:00:32.974Z,20
2016-05-09T10:01:44.512Z,20
2016-05-09T10:02:30.950Z,20
2016-05-09T10:03:44.970Z,20
2016-05-09T10:04:31.330Z,20
2016-05-09T10:05:31.067Z,20
2016-05-09T10:06:35.647Z,20
2016-05-09T10:07:31.712Z,20
2016-05-09T10:08:30.277Z,20
2016-05-09T10:09:31.749Z,20
2016-05-09T10:11:31.316Z,20
2016-05-09T10:12:30.773Z,20
2016-05-09T10:13:34.666Z,20
2016-05-09T10:14:30.591Z,20
2016-05-09T10:15:30.234Z,20
2016-05-09T10:16:36.752Z,20
2016-05-09T10:17:32.318Z,20
2016-05-09T10:18:32.273Z,20
2016-05-09T10:19:33.010Z,20
2016-05-09T10:20:30.435Z,20
2016-05-09T10:22:58.537Z,20
2016-05-09T10:23:30.068Z,20
2016-05-09T10:24:31.945Z,20
2016-05-09T10:25:31.214Z,20
2016-05-09T10:26:30.545Z,20
2016-05-09T10:27:30.469Z,20
2016-05-09T10:28:30.081Z,20
2016-05-09T10:30:45.870Z,20
2016-05-09T10:31:29.839Z,20
2016-05-09T10:32:33.077Z,20
2016-05-09T10:33:30.313Z,20
2016-05-09T10:34:33.848Z,20
2016-05-09T10:35:30.663Z,20
2016-05-09T10:36:31.431Z,20
2016-05-09T10:37:30.746Z,20
2016-05-09T10:38:35.968Z,20
2016-05-09T10:39:43.691Z,20
2016-05-09T10:40:39.616Z,20
2016-05-09T10:41:32.976Z,20
2016-05-09T10:42:43.560Z,20
2016-05-09T10:43:30.669Z,20
2016-05-09T10:44:30.702Z,20
2016-05-09T10:45:31.221Z,20
2016-05-09T10:46:30.426Z,20
2016-05-09T10:47:30.117Z,20
2016-05-09T10:48:30.057Z,20
2016-05-09T10:49:30.357Z,20
2016-05-09T10:50:33.156Z,20
2016-05-09T10:51:31.034Z,20
2016-05-09T10:52:32.895Z,20
2016-05-09T10:53:44.667Z,20
2016-05-09T10:54:34.479Z,20
2016-05-09T10:55:35.154Z,20
2016-05-09T10:56:29.438Z,20
2016-05-09T10:57:30.909Z,20
2016-05-09T10:58:30.803Z,20
2016-05-09T10:59:31.367Z,20
2016-05-09T11:00:45.139Z,20
2016-05-09T11:01:30.467Z,20
2016-05-09T11:02:35.375Z,20
2016-05-09T11:03:30.472Z,20
2016-05-09T11:04:30.678Z,25
2016-05-09T11:05:33.930Z,25
2016-05-09T11:06:30.480Z,25
2016-05-09T11:07:31.686Z,20
2016-05-09T11:08:30.595Z,20
2016-05-09T11:09:31.144Z,25
2016-05-09T11:10:44.993Z,25
2016-05-09T11:11:29.946Z,25
2016-05-09T11:12:30.262Z,25
2016-05-09T11:13:31.484Z,25
2016-05-09T11:14:32.033Z,25
2016-05-09T11:15:33.974Z,25
2016-05-09T11:16:29.960Z,25
2016-05-09T11:17:31.228Z,25
2016-05-09T11:18:32.778Z,25
2016-05-09T11:19:31.624Z,25
2016-05-09T11:20:35.081Z,25
2016-05-09T11:21:30.270Z,25
2016-05-09T11:22:30.492Z,25
2016-05-09T11:23:30.151Z,25
2016-05-09T11:24:33.810Z,25
2016-05-09T11:25:43.190Z,25
2016-05-09T11:26:31.018Z,25
2016-05-09T11:27:29.240Z,25
2016-05-09T11:28:29.290Z,25
2016-05-09T11:29:30.901Z,25
2016-05-09T11:31:33.907Z,25
2016-05-09T11:32:30.003Z,25
2016-05-09T11:33:47.352Z,25
2016-05-09T11:34:43.871Z,25
2016-05-09T11:35:29.121Z,25
2016-05-09T11:36:30.045Z,25
2016-05-09T11:37:29.908Z,30
2016-05-09T11:38:29.911Z,25
2016-05-09T11:39:30.491Z,30
2016-05-09T11:40:31.103Z,30
2016-05-09T11:41:30.200Z,35
2016-05-09T11:42:30.030Z,30
2016-05-09T11:43:38.689Z,35
2016-05-09T11:44:31.458Z,35
2016-05-09T11:45:29.148Z,35
2016-05-09T11:46:32.729Z,35
2016-05-09T11:47:29.731Z,35
2016-05-09T11:49:29.096Z,125
2016-05-09T11:50:43.242Z,30
2016-05-09T11:51:28.898Z,220
2016-05-09T11:52:34.401Z,60
2016-05-09T11:53:30.060Z,30
2016-05-09T12:01:06.472Z,55
2016-05-09T12:01:40.269Z,50
2016-05-09T12:02:38.850Z,35
2016-05-09T12:03:52.465Z,300
2016-05-09T12:04:52.170Z,1300
2016-05-09T12:06:38.844Z,35
2016-05-09T12:07:37.738Z,145
2016-05-09T12:08:38.351Z,150
2016-05-09T12:09:37.775Z,80
2016-05-09T12:10:37.699Z,40
2016-05-09T12:11:37.608Z,55
2016-05-09T12:12:38.579Z,85
2016-05-09T12:13:38.286Z,95
2016-05-09T12:14:38.038Z,100
2016-05-09T12:15:38.447Z,70
2016-05-09T12:16:38.074Z,50
2016-05-09T12:17:37.546Z,50
2016-05-09T12:18:38.299Z,50
2016-05-09T12:19:37.552Z,50
2016-05-09T12:20:37.585Z,55
2016-05-09T12:21:37.416Z,75
2016-05-09T12:22:37.435Z,100
2016-05-09T12:23:37.563Z,110
2016-05-09T12:24:38.096Z,275
2016-05-09T12:25:37.489Z,665
2016-05-09T12:26:38.226Z,575
2016-05-09T12:27:37.620Z,370
2016-05-09T12:28:37.607Z,250
2016-05-09T12:29:38.829Z,690
2016-05-09T12:30:37.487Z,940
2016-05-09T12:31:37.568Z,695
2016-05-09T12:32:37.571Z,750
2016-05-09T12:33:37.418Z,785
2016-05-09T12:34:37.483Z,1045
2016-05-09T12:35:37.251Z,1210
2016-05-09T12:36:38.300Z,1030
2016-05-09T12:37:38.116Z,195
2016-05-09T12:38:37.291Z,55
2016-05-09T12:39:37.839Z,55
2016-05-09T12:40:37.092Z,60
2016-05-09T12:41:37.455Z,50
2016-05-09T12:42:37.864Z,50
2016-05-09T12:43:37.913Z,50
2016-05-09T12:44:38.806Z,55
2016-05-09T12:45:37.091Z,65
2016-05-09T12:46:37.234Z,60
2016-05-09T12:47:38.174Z,70
2016-05-09T12:48:37.583Z,185
2016-05-09T12:49:37.320Z,45
2016-05-09T12:50:37.292Z,210
2016-05-09T12:51:39.247Z,115
2016-05-09T12:52:37.157Z,45
2016-05-09T12:53:37.174Z,140
2016-05-09T12:54:37.098Z,110
2016-05-09T12:55:38.118Z,95
2016-05-09T12:56:37.418Z,85
2016-05-09T12:57:37.763Z,110
2016-05-09T13:08:01.137Z,85
2016-05-09T13:08:47.889Z,55
2016-05-09T13:09:46.327Z,80
2016-05-09T13:10:47.033Z,85
2016-05-09T13:11:46.347Z,95
2016-05-09T13:12:46.116Z,65
2016-05-09T13:13:46.822Z,115
2016-05-09T13:14:47.422Z,65
2016-05-09T13:15:46.344Z,190
2016-05-09T13:16:46.127Z,490
2016-05-09T13:17:46.302Z,520
2016-05-09T13:18:46.210Z,175
2016-05-09T13:19:46.714Z,315
2016-05-09T13:22:40.315Z,455
2016-05-09T13:23:12.693Z,635
2016-05-09T13:24:12.742Z,270
2016-05-09T13:25:13.371Z,295
2016-05-09T13:26:12.795Z,385
2016-05-09T13:27:13.126Z,510
2016-05-09T13:28:12.518Z,830
2016-05-09T13:29:12.693Z,1155
2016-05-09T13:30:13.087Z,1270
2016-05-09T13:31:12.730Z,1280
2016-05-09T13:32:12.701Z,1230
2016-05-09T13:33:12.720Z,1210
2016-05-09T13:34:12.456Z,1485
2016-05-09T13:35:12.320Z,1470
2016-05-09T13:36:25.806Z,1385
2016-05-09T13:37:14.418Z,1545
2016-05-09T13:38:12.873Z,1590
2016-05-09T13:39:12.376Z,1360
2016-05-09T13:40:12.597Z,1335
2016-05-09T13:41:12.444Z,1485
2016-05-09T13:42:12.900Z,1435
2016-05-09T13:43:12.387Z,1430
2016-05-09T13:44:12.608Z,1035
2016-05-09T13:45:12.955Z,1250
2016-05-09T13:46:12.989Z,1320
2016-05-09T13:47:13.194Z,1345
2016-05-09T13:48:13.182Z,490
2016-05-09T13:49:14.512Z,695
2016-05-09T13:50:13.187Z,1055
2016-05-09T13:51:12.658Z,480
2016-05-09T13:52:12.536Z,405
2016-05-09T13:53:12.368Z,400
2016-05-09T13:54:12.479Z,195
2016-05-09T13:55:12.982Z,170
2016-05-09T13:56:12.501Z,450
2016-05-09T13:57:12.504Z,110
2016-05-09T13:58:12.427Z,125
2016-05-09T13:59:13.055Z,220
2016-05-09T14:00:12.386Z,215
2016-05-09T14:01:13.045Z,160
2016-05-09T14:02:12.438Z,190
2016-05-09T14:03:12.691Z,130
2016-05-09T14:04:13.022Z,135
2016-05-09T14:05:12.478Z,145
2016-05-09T14:06:13.028Z,155
2016-05-09T14:07:13.920Z,215
2016-05-09T14:08:12.814Z,160
2016-05-09T14:09:13.082Z,125
2016-05-09T14:10:12.553Z,105
2016-05-09T14:11:12.634Z,130
2016-05-09T14:12:12.527Z,145
2016-05-09T14:13:13.311Z,140
2016-05-09T14:14:12.127Z,155
2016-05-09T14:15:12.708Z,160
2016-05-09T14:16:26.100Z,165
2016-05-09T14:17:13.182Z,140
2016-05-09T14:18:13.091Z,120
2016-05-09T14:19:12.734Z,130
2016-05-09T14:20:13.018Z,140
2016-05-09T14:21:12.411Z,135
2016-05-09T14:22:12.711Z,160
2016-05-09T14:23:12.401Z,155
2016-05-09T14:24:13.232Z,245
2016-05-09T14:25:12.781Z,180
2016-05-09T14:26:12.238Z,185
2016-05-09T14:27:12.037Z,205
2016-05-09T14:28:13.555Z,220
2016-05-09T14:29:13.121Z,265
2016-05-09T14:30:12.170Z,245
2016-05-09T14:31:13.048Z,220
2016-05-09T14:32:12.019Z,150
2016-05-09T14:33:11.943Z,205
2016-05-09T14:34:25.978Z,200
2016-05-09T14:35:12.887Z,185
2016-05-09T14:36:25.826Z,185
2016-05-09T14:37:12.282Z,190
2016-05-09T14:38:12.097Z,220
2016-05-09T14:39:12.069Z,205
2016-05-09T14:40:11.759Z,165
2016-05-09T14:41:12.340Z,230
2016-05-09T14:42:12.734Z,240
2016-05-09T14:43:12.986Z,215
2016-05-09T14:44:13.847Z,290